Time;durP1;ratioP1;P1;durP2;ratioP2;P2;SDS_P1;SDS_P2;PMS_P1;PMS_P2;Temp;Humidity;BMP_temperature;BMP_pressure;BME280_temperature;BME280_humidity;BME280_pressure;Samples;Min_cycle;Max_cycle;Signal;HPM_P1;HPM_P2
2023/09/27 00:00:36;;;;;;;;;;;;;;;18.06;100.00;99953.28;4975606;28;1173;-60
2023/09/27 00:03:04;;;;;;;;;;;;;;;18.04;100.00;99958.53;4993063;28;860;-60
2023/09/27 00:05:31;;;;;;;;;;;;;;;17.98;100.00;99954.72;4992981;28;868;-60
2023/09/27 00:07:57;;;;;;;;;;;;;;;17.97;100.00;99953.19;4992924;28;1953;-61
2023/09/27 00:10:24;;;;;;;;;;;;;;;17.93;100.00;99947.69;4992982;28;824;-61
2023/09/27 00:12:51;;;;;;;;;;;;;;;17.84;100.00;99951.19;4992875;28;1210;-61
2023/09/27 00:15:17;;;;;;;;;;;;;;;17.78;100.00;99947.34;4975474;28;1185;-60
2023/09/27 00:17:44;;;;;;;;;;;;;;;17.75;100.00;99945.44;4992843;28;813;-61
2023/09/27 00:20:15;;;;;;;;;;;;;;;17.67;100.00;99953.28;4992967;28;883;-61
2023/09/27 00:22:43;;;;;;;;;;;;;;;17.68;100.00;99940.84;4992664;28;841;-61
2023/09/27 00:25:10;;;;;;;;;;;;;;;17.66;100.00;99948.13;4992616;28;869;-60
2023/09/27 00:27:37;;;;;;;;;;;;;;;17.64;100.00;99947.78;4992533;28;1960;-60
2023/09/27 00:30:04;;;;;;;;;;;;;;;17.64;100.00;99948.56;4992661;28;903;-60
2023/09/27 00:32:30;;;;;;;;;;;;;;;17.64;100.00;99942.97;4992586;28;929;-60
2023/09/27 00:34:56;;;;;;;;;;;;;;;17.61;100.00;99938.31;4992474;28;851;-61
2023/09/27 00:37:24;;;;;;;;;;;;;;;17.61;100.00;99946.69;4975145;28;905;-60
2023/09/27 00:39:51;;;;;;;;;;;;;;;17.59;100.00;99942.78;4992390;28;824;-60
2023/09/27 00:42:18;;;;;;;;;;;;;;;17.54;100.00;99949.72;4992722;28;868;-61
2023/09/27 00:44:45;;;;;;;;;;;;;;;17.51;100.00;99940.19;4992434;28;849;-61
2023/09/27 00:47:12;;;;;;;;;;;;;;;17.50;100.00;99944.22;4992407;28;1882;-61
2023/09/27 00:49:39;;;;;;;;;;;;;;;17.51;100.00;99945.00;4975011;28;1173;-61
2023/09/27 00:52:06;;;;;;;;;;;;;;;17.50;100.00;99938.63;4992457;28;915;-60
2023/09/27 00:54:33;;;;;;;;;;;;;;;17.48;100.00;99934.72;4974827;28;1184;-61
2023/09/27 00:57:01;;;;;;;;;;;;;;;17.53;100.00;99934.16;4974851;28;1201;-61
2023/09/27 00:59:28;;;;;;;;;;;;;;;17.51;100.00;99931.81;4992353;28;841;-60
2023/09/27 01:01:55;;;;;;;;;;;;;;;17.49;100.00;99934.25;4992277;28;837;-60
2023/09/27 01:04:22;;;;;;;;;;;;;;;17.44;100.00;99937.63;4992873;28;875;-61
2023/09/27 01:06:49;;;;;;;;;;;;;;;17.43;100.00;99930.50;4996121;28;1941;-60
2023/09/27 01:09:17;;;;;;;;;;;;;;;17.41;100.00;99929.34;4996292;28;860;-60
2023/09/27 01:11:46;;;;;;;;;;;;;;;17.38;100.00;99930.25;4996142;28;914;-60
2023/09/27 01:14:13;;;;;;;;;;;;;;;17.34;100.00;99930.34;4995938;28;1407;-61
2023/09/27 01:16:40;;;;;;;;;;;;;;;17.39;100.00;99938.19;4994771;28;1225;-60
2023/09/27 01:19:06;;;;;;;;;;;;;;;17.38;100.00;99935.84;4996027;28;879;-61
2023/09/27 01:21:33;;;;;;;;;;;;;;;17.35;100.00;99931.94;4996035;28;872;-60
2023/09/27 01:23:59;;;;;;;;;;;;;;;17.32;100.00;99932.81;4995841;28;843;-60
2023/09/27 01:26:27;;;;;;;;;;;;;;;17.29;100.00;99928.13;4978381;28;1918;-60
2023/09/27 01:28:58;;;;;;;;;;;;;;;17.26;100.00;99934.59;4995841;28;887;-61
2023/09/27 01:31:25;;;;;;;;;;;;;;;17.25;100.00;99936.59;4995927;28;841;-61
2023/09/27 01:33:52;;;;;;;;;;;;;;;17.25;100.00;99927.44;4995884;28;841;-61
2023/09/27 01:36:18;;;;;;;;;;;;;;;17.24;100.00;99937.03;4995977;28;820;-60
2023/09/27 01:38:44;;;;;;;;;;;;;;;17.24;100.00;99935.06;4995666;28;947;-60
2023/09/27 01:41:11;;;;;;;;;;;;;;;17.22;100.00;99931.13;4995632;28;1038;-61
2023/09/27 01:43:38;;;;;;;;;;;;;;;17.17;100.00;99924.06;4995562;28;860;-61
2023/09/27 01:46:04;;;;;;;;;;;;;;;17.14;100.00;99933.34;4995469;28;1890;-60
2023/09/27 01:48:32;;;;;;;;;;;;;;;17.14;100.00;99927.78;4995472;28;825;-60
2023/09/27 01:50:59;;;;;;;;;;;;;;;17.11;100.00;99932.25;4995463;28;915;-60
2023/09/27 01:53:25;;;;;;;;;;;;;;;17.15;100.00;99937.69;4995357;28;879;-60
2023/09/27 01:55:52;;;;;;;;;;;;;;;17.12;100.00;99931.00;4995378;28;929;-61
2023/09/27 01:58:19;;;;;;;;;;;;;;;17.10;100.00;99932.69;4995454;28;949;-60
2023/09/27 02:00:45;;;;;;;;;;;;;;;17.04;100.00;99935.22;4995333;28;883;-60
2023/09/27 02:03:12;;;;;;;;;;;;;;;17.04;100.00;99928.88;4995195;28;864;-60
2023/09/27 02:05:38;;;;;;;;;;;;;;;17.02;100.00;99928.53;4995245;28;967;-60
2023/09/27 02:08:05;;;;;;;;;;;;;;;17.04;100.00;99929.63;4995078;28;1878;-61
2023/09/27 02:10:32;;;;;;;;;;;;;;;17.02;100.00;99926.50;4995094;28;891;-61
2023/09/27 02:12:59;;;;;;;;;;;;;;;17.06;100.00;99926.41;4995185;28;1280;-61
2023/09/27 02:15:26;;;;;;;;;;;;;;;17.05;100.00;99928.44;4994837;28;848;-60
2023/09/27 02:17:53;;;;;;;;;;;;;;;17.04;100.00;99928.88;4994944;28;891;-60
2023/09/27 02:20:20;;;;;;;;;;;;;;;17.02;100.00;99934.09;4994876;28;891;-61
2023/09/27 02:22:50;;;;;;;;;;;;;;;17.00;100.00;99931.75;4994784;28;896;-60
2023/09/27 02:25:16;;;;;;;;;;;;;;;16.99;100.00;99924.63;4994790;28;848;-61
2023/09/27 02:27:43;;;;;;;;;;;;;;;17.00;100.00;99928.19;4994689;28;1914;-60
2023/09/27 02:30:14;;;;;;;;;;;;;;;17.01;100.00;99926.97;4994724;28;915;-61
2023/09/27 02:32:41;;;;;;;;;;;;;;;16.99;100.00;99933.00;4994719;28;860;-60
2023/09/27 02:35:09;;;;;;;;;;;;;;;17.01;100.00;99940.94;4994530;28;872;-60
2023/09/27 02:37:36;;;;;;;;;;;;;;;16.99;100.00;99940.59;4994619;28;820;-60
2023/09/27 02:40:12;;;;;;;;;;;;;;;17.00;100.00;99939.34;4994506;28;867;-61
2023/09/27 02:42:43;;;;;;;;;;;;;;;16.98;100.00;99944.59;4994443;28;851;-60
2023/09/27 02:45:11;;;;;;;;;;;;;;;16.92;100.00;99942.34;4994757;28;845;-60
2023/09/27 02:47:38;;;;;;;;;;;;;;;16.85;100.00;99947.34;4994240;28;1910;-60
2023/09/27 02:50:09;;;;;;;;;;;;;;;16.80;100.00;99939.50;4994581;28;868;-60
2023/09/27 02:52:38;;;;;;;;;;;;;;;16.76;100.00;99938.81;4994231;28;1032;-60
2023/09/27 02:55:05;;;;;;;;;;;;;;;16.76;100.00;99936.03;4994264;28;867;-60
2023/09/27 02:57:32;;;;;;;;;;;;;;;16.76;100.00;99939.59;4994227;28;864;-60
2023/09/27 02:59:58;;;;;;;;;;;;;;;16.76;100.00;99936.81;4994213;28;880;-61
2023/09/27 03:02:26;;;;;;;;;;;;;;;16.80;100.00;99945.09;4994076;28;903;-61
2023/09/27 03:04:52;;;;;;;;;;;;;;;16.80;100.00;99937.53;4993028;28;1181;-60
2023/09/27 03:07:19;;;;;;;;;;;;;;;16.82;100.00;99935.06;4993951;28;1953;-61
2023/09/27 03:09:47;;;;;;;;;;;;;;;16.84;100.00;99938.19;4976482;28;1499;-61
2023/09/27 03:12:13;;;;;;;;;;;;;;;16.85;100.00;99934.16;4993937;28;891;-60
2023/09/27 03:14:40;;;;;;;;;;;;;;;16.88;100.00;99938.88;4993673;28;1245;-60
2023/09/27 03:17:07;;;;;;;;;;;;;;;16.98;100.00;99934.19;4993838;28;856;-60
2023/09/27 03:19:34;;;;;;;;;;;;;;;16.98;100.00;99937.00;4993803;28;860;-60
2023/09/27 03:22:01;;;;;;;;;;;;;;;17.00;100.00;99945.72;4993635;28;860;-60
2023/09/27 03:24:27;;;;;;;;;;;;;;;16.99;100.00;99943.38;4993668;28;841;-61
2023/09/27 03:26:54;;;;;;;;;;;;;;;16.94;100.00;99942.69;4993189;28;1975;-60
2023/09/27 03:29:21;;;;;;;;;;;;;;;16.97;100.00;99941.03;4993448;28;860;-61
2023/09/27 03:31:47;;;;;;;;;;;;;;;16.94;100.00;99945.50;4993782;28;809;-60
2023/09/27 03:34:15;;;;;;;;;;;;;;;16.97;100.00;99934.66;4993582;28;821;-60
2023/09/27 03:36:44;;;;;;;;;;;;;;;16.99;100.00;99937.81;4993474;28;923;-61
2023/09/27 03:39:11;;;;;;;;;;;;;;;16.96;100.00;99947.03;4993427;28;900;-61
2023/09/27 03:41:39;;;;;;;;;;;;;;;16.91;100.00;99949.16;4993474;28;888;-61
2023/09/27 03:44:06;;;;;;;;;;;;;;;16.87;100.00;99937.31;4975822;28;1188;-60
2023/09/27 03:46:32;;;;;;;;;;;;;;;16.88;100.00;99938.09;4993212;28;1894;-60
2023/09/27 03:48:59;;;;;;;;;;;;;;;16.89;100.00;99937.66;4993318;28;899;-61
2023/09/27 03:51:26;;;;;;;;;;;;;;;16.92;100.00;99938.78;4993052;28;880;-60
2023/09/27 03:53:52;;;;;;;;;;;;;;;16.94;100.00;99933.53;4993248;28;809;-61
2023/09/27 03:56:18;;;;;;;;;;;;;;;16.94;100.00;99939.91;4993105;28;900;-61
2023/09/27 03:58:45;;;;;;;;;;;;;;;16.93;100.00;99945.94;4993171;28;836;-60
2023/09/27 04:01:12;;;;;;;;;;;;;;;16.94;100.00;99937.13;4992995;28;896;-60
2023/09/27 04:03:39;;;;;;;;;;;;;;;16.97;100.00;99943.03;4993059;28;879;-60
2023/09/27 04:06:05;;;;;;;;;;;;;;;16.99;100.00;99946.19;4992854;28;1957;-61
2023/09/27 04:08:32;;;;;;;;;;;;;;;17.01;100.00;99949.31;4992950;28;919;-61
2023/09/27 04:11:09;;;;;;;;;;;;;;;17.09;100.00;99956.22;4992817;28;845;-60
2023/09/27 04:13:36;;;;;;;;;;;;;;;17.17;100.00;99949.22;4991563;28;1461;-60
2023/09/27 04:16:03;;;;;;;;;;;;;;;17.19;100.00;99941.16;4992805;28;1248;-60
2023/09/27 04:18:29;;;;;;;;;;;;;;;17.20;100.00;99953.13;4992828;28;1262;-60
2023/09/27 04:21:04;;;;;;;;;;;;;;;17.20;100.00;99941.94;4992622;28;837;-61
2023/09/27 04:23:31;;;;;;;;;;;;;;;17.22;100.00;99936.69;4992586;28;857;-61
2023/09/27 04:25:58;;;;;;;;;;;;;;;17.32;100.00;99939.16;4992572;28;1914;-61
2023/09/27 04:28:24;;;;;;;;;;;;;;;17.43;100.00;99943.66;4992581;28;899;-60
2023/09/27 04:30:51;;;;;;;;;;;;;;;17.51;100.00;99939.41;4992636;28;814;-61
2023/09/27 04:33:18;;;;;;;;;;;;;;;17.63;100.00;99932.28;4992446;28;932;-60
2023/09/27 04:35:44;;;;;;;;;;;;;;;17.66;100.00;99937.72;4992570;28;817;-60
2023/09/27 04:38:12;;;;;;;;;;;;;;;17.73;100.00;99936.72;4992509;28;893;-60
2023/09/27 04:40:39;;;;;;;;;;;;;;;17.74;100.00;99930.69;4992405;28;880;-60
2023/09/27 04:43:04;;;;;;;;;;;;;;;17.78;100.00;99936.16;4992492;28;821;-61
2023/09/27 04:45:31;;;;;;;;;;;;;;;17.80;100.00;99928.13;4992380;28;825;-61
2023/09/27 04:47:58;;;;;;;;;;;;;;;17.87;100.00;99929.91;4992324;28;1949;-61
2023/09/27 04:50:25;;;;;;;;;;;;;;;17.92;100.00;99929.34;4992234;28;945;-60
2023/09/27 04:52:52;;;;;;;;;;;;;;;17.97;100.00;99934.38;4992873;28;840;-60
2023/09/27 04:55:19;;;;;;;;;;;;;;;18.04;100.00;99925.75;4992212;28;952;-60
2023/09/27 04:57:45;;;;;;;;;;;;;;;18.14;100.00;99930.19;4992396;28;871;-60
2023/09/27 05:00:18;;;;;;;;;;;;;;;18.20;100.00;99938.81;4992247;28;948;-60
2023/09/27 05:02:45;;;;;;;;;;;;;;;18.29;100.00;99944.47;4992321;28;813;-60
2023/09/27 05:05:11;;;;;;;;;;;;;;;18.39;100.00;99945.34;4992180;28;861;-60
2023/09/27 05:07:39;;;;;;;;;;;;;;;18.48;100.00;99941.84;4992378;28;1973;-60
2023/09/27 05:10:07;;;;;;;;;;;;;;;18.59;100.00;99949.88;4992195;28;880;-60
2023/09/27 05:12:33;;;;;;;;;;;;;;;18.71;100.00;99949.81;4992392;28;1080;-60
2023/09/27 05:15:00;;;;;;;;;;;;;;;18.82;100.00;99948.66;4991987;28;1460;-60
2023/09/27 05:17:27;;;;;;;;;;;;;;;18.86;100.00;99946.50;4992131;28;850;-60
2023/09/27 05:19:54;;;;;;;;;;;;;;;18.90;100.00;99949.97;4992233;28;837;-60
2023/09/27 05:22:20;;;;;;;;;;;;;;;18.91;100.00;99952.31;4992056;28;860;-61
2023/09/27 05:24:47;;;;;;;;;;;;;;;19.02;100.00;99962.34;4992468;28;903;-60
2023/09/27 05:27:14;;;;;;;;;;;;;;;19.09;100.00;99960.03;4991991;28;1914;-60
2023/09/27 05:29:41;;;;;;;;;;;;;;;19.16;100.00;99959.78;4992087;28;864;-60
2023/09/27 05:32:08;;;;;;;;;;;;;;;19.18;100.00;99957.31;4992020;28;851;-60
2023/09/27 05:34:35;;;;;;;;;;;;;;;19.22;100.00;99964.78;4992219;28;836;-60
2023/09/27 05:37:01;;;;;;;;;;;;;;;19.30;100.00;99969.66;4992028;28;868;-60
2023/09/27 05:39:28;;;;;;;;;;;;;;;19.48;100.00;99962.59;4992009;28;863;-60
2023/09/27 05:41:55;;;;;;;;;;;;;;;19.68;100.00;99965.03;4992021;28;867;-60
2023/09/27 05:44:21;;;;;;;;;;;;;;;19.82;100.00;99960.88;4991878;28;896;-60
2023/09/27 05:46:48;;;;;;;;;;;;;;;19.91;100.00;99972.16;4991919;28;1890;-60
2023/09/27 05:49:15;;;;;;;;;;;;;;;19.98;100.00;99957.81;4991811;28;844;-60
2023/09/27 05:51:43;;;;;;;;;;;;;;;20.13;100.00;99970.00;4994435;28;840;-60
2023/09/27 05:54:10;;;;;;;;;;;;;;;20.31;100.00;99972.09;4995421;28;812;-60
2023/09/27 05:56:37;;;;;;;;;;;;;;;20.55;100.00;99980.66;4995408;28;856;-60
2023/09/27 05:59:08;;;;;;;;;;;;;;;20.69;100.00;99979.28;4995326;28;816;-60
2023/09/27 06:01:35;;;;;;;;;;;;;;;20.94;100.00;99983.81;4995309;28;828;-60
2023/09/27 06:04:02;;;;;;;;;;;;;;;21.14;100.00;99999.38;4995305;28;864;-60
2023/09/27 06:06:30;;;;;;;;;;;;;;;21.26;100.00;99994.84;4995114;28;1971;-60
2023/09/27 06:08:58;;;;;;;;;;;;;;;21.47;100.00;99993.88;4995221;28;852;-60
2023/09/27 06:11:24;;;;;;;;;;;;;;;21.74;100.00;99997.84;4995228;28;1026;-59
2023/09/27 06:13:51;;;;;;;;;;;;;;;22.02;100.00;100001.31;4994899;28;1275;-59
2023/09/27 06:16:19;;;;;;;;;;;;;;;22.37;100.00;99998.00;4995068;28;855;-59
2023/09/27 06:18:46;;;;;;;;;;;;;;;22.66;100.00;100004.97;4994966;28;828;-58
2023/09/27 06:21:13;;;;;;;;;;;;;;;22.94;100.00;100002.75;4994835;28;880;-59
2023/09/27 06:23:40;;;;;;;;;;;;;;;23.01;100.00;100008.00;4994941;28;897;-59
2023/09/27 06:26:07;;;;;;;;;;;;;;;23.22;100.00;100017.38;4994806;28;1915;-59
2023/09/27 06:28:34;;;;;;;;;;;;;;;23.25;100.00;100007.94;4994842;28;891;-59
2023/09/27 06:31:00;;;;;;;;;;;;;;;23.15;100.00;100006.47;4994819;28;813;-59
2023/09/27 06:33:27;;;;;;;;;;;;;;;22.93;100.00;100003.97;4994764;28;845;-59
2023/09/27 06:35:59;;;;;;;;;;;;;;;22.99;100.00;100002.06;4994595;28;951;-60
2023/09/27 06:38:25;;;;;;;;;;;;;;;22.83;100.00;99995.63;4994753;28;861;-59
2023/09/27 06:40:52;;;;;;;;;;;;;;;22.74;100.00;100001.31;4994762;28;836;-59
2023/09/27 07:14:20;;;;;;;;;;;;;;;23.56;100.00;100018.72;5080780;23;1657;-58
2023/09/27 07:16:46;;;;;;;;;;;;;;;23.48;100.00;100011.16;4994063;28;840;-58
2023/09/27 07:19:15;;;;;;;;;;;;;;;23.92;100.00;100015.97;4993827;28;816;-57
2023/09/27 07:21:42;;;;;;;;;;;;;;;24.42;100.00;100019.50;4993840;28;879;-58
2023/09/27 07:24:10;;;;;;;;;;;;;;;24.70;100.00;100026.81;4994025;28;865;-58
2023/09/27 07:26:36;;;;;;;;;;;;;;;24.78;100.00;100037.19;4993628;28;1970;-58
2023/09/27 07:29:02;;;;;;;;;;;;;;;24.97;100.00;100028.41;4993650;28;824;-58
2023/09/27 07:31:29;;;;;;;;;;;;;;;24.91;100.00;100036.81;4993602;28;820;-57
2023/09/27 07:33:56;;;;;;;;;;;;;;;25.05;100.00;100040.84;4993658;28;876;-58
2023/09/27 07:36:26;;;;;;;;;;;;;;;25.34;100.00;100045.53;4993570;28;836;-58
2023/09/27 07:38:57;;;;;;;;;;;;;;;25.52;100.00;100037.97;4993508;28;828;-57
2023/09/27 07:41:24;;;;;;;;;;;;;;;25.96;100.00;100042.47;4993536;28;832;-57
2023/09/27 07:43:51;;;;;;;;;;;;;;;26.37;100.00;100047.88;4993342;28;903;-57
2023/09/27 07:46:19;;;;;;;;;;;;;;;26.80;100.00;100047.84;4993310;28;1886;-57
2023/09/27 07:48:46;;;;;;;;;;;;;;;27.08;100.00;100047.94;4993338;28;1184;-58
2023/09/27 07:51:13;;;;;;;;;;;;;;;27.23;100.00;100047.75;4993696;28;1184;-57
2023/09/27 07:53:40;;;;;;;;;;;;;;;27.43;100.00;100038.22;4993238;28;1267;-57
2023/09/27 07:56:10;;;;;;;;;;;;;;;27.65;100.00;100043.13;4993328;28;1279;-57
2023/09/27 07:58:37;;;;;;;;;;;;;;;28.26;100.00;100028.09;4992975;28;967;-57
2023/09/27 08:01:04;;;;;;;;;;;;;;;28.27;100.00;100031.72;4993077;28;955;-57
2023/09/27 08:03:31;;;;;;;;;;;;;;;28.51;100.00;100031.16;4993066;28;832;-57
2023/09/27 08:05:57;;;;;;;;;;;;;;;28.68;100.00;100033.94;4993019;28;1906;-57
2023/09/27 08:08:24;;;;;;;;;;;;;;;28.65;96.97;100030.06;4993101;28;923;-58
2023/09/27 08:10:52;;;;;;;;;;;;;;;28.02;97.22;100031.53;4993234;28;817;-58
2023/09/27 08:13:19;;;;;;;;;;;;;;;27.16;100.00;100036.84;4992542;28;1382;-58
2023/09/27 08:15:51;;;;;;;;;;;;;;;26.52;100.00;100042.03;4993208;28;872;-58
2023/09/27 08:18:18;;;;;;;;;;;;;;;25.81;100.00;100026.38;4992909;28;824;-58
2023/09/27 08:20:45;;;;;;;;;;;;;;;25.65;100.00;100029.88;4992838;28;888;-58
2023/09/27 08:23:12;;;;;;;;;;;;;;;26.21;100.00;100033.13;4992874;28;836;-58
2023/09/27 08:25:39;;;;;;;;;;;;;;;27.56;99.50;100029.19;4992793;28;891;-58
2023/09/27 08:28:06;;;;;;;;;;;;;;;28.08;93.21;100032.28;4992637;28;1910;-58
2023/09/27 08:30:33;;;;;;;;;;;;;;;28.30;86.70;100039.22;4992662;28;872;-58
2023/09/27 08:33:00;;;;;;;;;;;;;;;28.29;82.93;100029.13;4992636;28;856;-58
2023/09/27 08:35:28;;;;;;;;;;;;;;;27.58;85.96;100035.91;4992613;28;848;-57
2023/09/27 08:37:54;;;;;;;;;;;;;;;26.88;88.43;100029.84;4975215;28;938;-58
2023/09/27 08:40:21;;;;;;;;;;;;;;;26.86;86.71;100031.63;4992573;28;876;-59
2023/09/27 08:42:51;;;;;;;;;;;;;;;27.32;86.76;100027.63;4992674;28;895;-58
2023/09/27 08:45:22;;;;;;;;;;;;;;;28.04;81.09;100036.69;4992537;28;868;-58
2023/09/27 08:47:48;;;;;;;;;;;;;;;28.63;74.92;100020.50;4974975;28;1882;-58
2023/09/27 08:50:18;;;;;;;;;;;;;;;29.04;72.79;100020.56;4992550;28;851;-58
2023/09/27 08:52:51;;;;;;;;;;;;;;;28.23;74.38;100017.78;4992320;28;903;-58
2023/09/27 08:55:18;;;;;;;;;;;;;;;28.32;74.90;100027.34;4975162;28;1469;-58
2023/09/27 08:58:02;;;;;;;;;;;;;;;28.39;78.77;100033.22;4992427;28;817;-58
2023/09/27 09:00:32;;;;;;;;;;;;;;;28.66;74.10;100040.16;4992302;28;829;-58
2023/09/27 09:03:00;;;;;;;;;;;;;;;28.03;70.27;100030.22;4992486;28;829;-58
2023/09/27 09:05:30;;;;;;;;;;;;;;;27.28;69.07;100041.28;4992458;28;934;-58
2023/09/27 09:08:03;;;;;;;;;;;;;;;26.90;70.88;100035.00;4992220;28;1899;-58
2023/09/27 09:10:30;;;;;;;;;;;;;;;27.47;69.55;100022.47;4992260;28;828;-58
2023/09/27 09:12:59;;;;;;;;;;;;;;;28.34;65.34;100016.97;4992041;28;1227;-59
2023/09/27 09:15:35;;;;;;;;;;;;;;;28.38;60.17;100016.69;4992217;28;1317;-58
2023/09/27 09:18:08;;;;;;;;;;;;;;;28.00;59.94;100021.97;4992301;28;935;-58
2023/09/27 09:20:51;;;;;;;;;;;;;;;27.49;60.80;100019.13;4992251;28;906;-58
2023/09/27 09:23:30;;;;;;;;;;;;;;;27.49;60.51;100011.38;4992065;28;1170;-58
2023/09/27 09:25:57;;;;;;;;;;;;;;;27.78;58.22;100009.31;4993556;28;856;-58
2023/09/27 09:28:27;;;;;;;;;;;;;;;27.52;52.94;100008.81;4994771;28;1350;-58
2023/09/27 09:30:57;;;;;;;;;;;;;;;27.90;53.50;99999.50;4995867;28;879;-57
2023/09/27 09:33:36;;;;;;;;;;;;;;;28.38;53.17;100005.31;4995971;28;821;-58
2023/09/27 09:36:02;;;;;;;;;;;;;;;29.00;50.92;100017.22;4995929;28;899;-57
2023/09/27 09:38:30;;;;;;;;;;;;;;;29.34;47.97;100010.53;4995788;28;884;-58
2023/09/27 09:40:58;;;;;;;;;;;;;;;29.35;47.69;100023.50;4995630;28;871;-58
2023/09/27 09:43:38;;;;;;;;;;;;;;;28.96;49.37;100021.66;4995692;28;816;-58
2023/09/27 09:46:10;;;;;;;;;;;;;;;28.99;49.57;100024.19;4995629;28;1886;-58
2023/09/27 09:48:40;;;;;;;;;;;;;;;28.76;48.74;100020.69;4995880;28;894;-58
2023/09/27 09:51:07;;;;;;;;;;;;;;;28.34;50.61;100030.44;4995567;28;879;-58
2023/09/27 09:53:38;;;;;;;;;;;;;;;28.65;49.75;100021.53;4995696;28;852;-57
2023/09/27 09:56:06;;;;;;;;;;;;;;;28.70;48.26;100026.44;4995436;28;856;-58
2023/09/27 09:58:32;;;;;;;;;;;;;;;28.81;48.99;100008.53;4995393;28;848;-58
2023/09/27 10:01:01;;;;;;;;;;;;;;;28.89;49.28;100009.53;4995359;28;861;-58
2023/09/27 10:03:30;;;;;;;;;;;;;;;29.39;48.54;100015.44;4995355;28;856;-57
2023/09/27 10:05:58;;;;;;;;;;;;;;;29.60;48.21;100002.31;4995194;28;875;-58
2023/09/27 10:08:28;;;;;;;;;;;;;;;29.86;47.81;100013.25;4995334;28;1325;-58
2023/09/27 10:10:55;;;;;;;;;;;;;;;29.87;45.79;100014.81;4995103;28;852;-58
2023/09/27 10:13:47;;;;;;;;;;;;;;;29.46;45.30;100015.63;4995314;28;1357;-57
2023/09/27 10:16:18;;;;;;;;;;;;;;;29.24;44.27;100001.56;4995152;28;875;-58
2023/09/27 10:18:46;;;;;;;;;;;;;;;29.38;45.27;100003.28;4995083;28;852;-58
2023/09/27 10:21:15;;;;;;;;;;;;;;;29.38;42.79;100008.97;4995011;28;852;-58
2023/09/27 10:23:45;;;;;;;;;;;;;;;29.25;43.33;100001.06;4995286;28;902;-58
2023/09/27 10:26:18;;;;;;;;;;;;;;;29.25;42.90;99998.22;4977400;28;1910;-58
2023/09/27 10:29:12;;;;;;;;;;;;;;;29.46;44.33;99990.00;4994985;28;812;-60
2023/09/27 10:32:01;;;;;;;;;;;;;;;29.74;44.83;99980.47;4985631;28;1192;-58
2023/09/27 10:34:30;;;;;;;;;;;;;;;30.05;44.20;99986.91;4979194;28;1174;-58
2023/09/27 10:36:59;;;;;;;;;;;;;;;30.32;42.93;99974.44;4994641;28;902;-58
2023/09/27 10:39:26;;;;;;;;;;;;;;;30.52;37.95;99986.63;4994570;28;838;-58
2023/09/27 10:41:53;;;;;;;;;;;;;;;30.41;36.55;99973.28;4994628;28;895;-57
2023/09/27 10:44:43;;;;;;;;;;;;;;;30.40;38.72;99993.78;4994714;28;833;-58
2023/09/27 10:47:12;;;;;;;;;;;;;;;30.38;37.90;99974.34;4994443;28;1882;-58
2023/09/27 10:49:38;;;;;;;;;;;;;;;30.12;38.26;99977.75;4994454;28;825;-58
2023/09/27 10:52:14;;;;;;;;;;;;;;;30.23;39.38;99982.53;4994536;28;896;-58
2023/09/27 10:54:40;;;;;;;;;;;;;;;30.71;37.34;99981.69;4994711;28;899;-58
2023/09/27 10:57:08;;;;;;;;;;;;;;;31.12;36.91;99972.03;4994378;28;940;-58
2023/09/27 10:59:35;;;;;;;;;;;;;;;31.42;36.58;99976.00;4994414;28;804;-58
2023/09/27 11:02:06;;;;;;;;;;;;;;;31.47;36.69;99983.72;4994315;28;839;-58
2023/09/27 11:04:36;;;;;;;;;;;;;;;31.10;35.73;99976.75;4994238;28;887;-58
2023/09/27 11:07:03;;;;;;;;;;;;;;;31.45;35.96;99972.88;4994123;28;2340;-57
2023/09/27 11:09:31;;;;;;;;;;;;;;;31.29;35.89;99986.06;4994112;28;832;-59
2023/09/27 11:11:59;;;;;;;;;;;;;;;30.50;37.37;99969.28;4994028;28;852;-58
2023/09/27 11:14:32;;;;;;;;;;;;;;;30.15;37.54;99970.19;4993861;28;1340;-58
2023/09/27 11:17:17;;;;;;;;;;;;;;;30.04;38.21;99969.03;4994147;28;824;-58
2023/09/27 11:19:44;;;;;;;;;;;;;;;30.37;38.28;99952.09;4993796;28;880;-58
2023/09/27 11:22:11;;;;;;;;;;;;;;;30.33;38.59;99970.25;4976458;28;1197;-58
2023/09/27 11:24:40;;;;;;;;;;;;;;;30.55;37.87;99962.72;4993801;28;1021;-58
2023/09/27 11:27:09;;;;;;;;;;;;;;;31.09;37.07;99958.13;4993697;28;1985;-59
2023/09/27 11:29:36;;;;;;;;;;;;;;;31.31;36.64;99960.59;4993731;28;851;-59
2023/09/27 11:32:03;;;;;;;;;;;;;;;31.33;36.39;99948.63;4993768;28;812;-59
2023/09/27 11:34:31;;;;;;;;;;;;;;;31.22;36.38;99955.28;4993668;28;856;-59
2023/09/27 11:36:59;;;;;;;;;;;;;;;31.02;37.49;99953.78;4993543;28;887;-59
2023/09/27 11:39:43;;;;;;;;;;;;;;;31.21;37.50;99947.28;4993631;28;1231;-58
2023/09/27 11:42:11;;;;;;;;;;;;;;;30.96;37.81;99955.19;4993486;28;951;-59
2023/09/27 11:44:37;;;;;;;;;;;;;;;31.04;37.67;99958.94;4993505;28;864;-59
2023/09/27 11:47:06;;;;;;;;;;;;;;;31.08;36.92;99963.03;4993403;28;1953;-59
2023/09/27 11:49:33;;;;;;;;;;;;;;;30.54;37.86;99964.06;4992809;28;836;-58
2023/09/27 11:52:01;;;;;;;;;;;;;;;29.54;39.71;99958.88;4993291;28;816;-58
2023/09/27 11:54:28;;;;;;;;;;;;;;;29.07;40.46;99958.97;4993299;28;1294;-58
2023/09/27 11:56:56;;;;;;;;;;;;;;;28.41;41.93;99965.28;4993412;28;1258;-58
2023/09/27 11:59:23;;;;;;;;;;;;;;;28.41;41.45;99959.59;4993643;28;922;-58
2023/09/27 12:01:50;;;;;;;;;;;;;;;29.07;40.64;99958.97;4993716;28;828;-58
2023/09/27 12:04:17;;;;;;;;;;;;;;;30.01;39.39;99946.53;4993251;28;915;-58
2023/09/27 12:06:45;;;;;;;;;;;;;;;30.61;38.96;99948.41;4993581;28;1886;-58
2023/09/27 12:09:11;;;;;;;;;;;;;;;31.01;38.36;99942.94;4975627;28;1303;-58
2023/09/27 12:11:38;;;;;;;;;;;;;;;31.40;37.92;99950.84;4993278;28;828;-58
2023/09/27 12:14:05;;;;;;;;;;;;;;;31.41;36.58;99949.53;4992899;28;1284;-58
2023/09/27 12:16:31;;;;;;;;;;;;;;;31.06;36.72;99947.75;4993041;28;880;-58
2023/09/27 12:18:58;;;;;;;;;;;;;;;30.94;36.73;99952.88;4993021;28;1320;-58
2023/09/27 12:21:25;;;;;;;;;;;;;;;30.24;35.88;99953.50;4992990;28;828;-58
2023/09/27 12:26:37;;;;;;;;;;;;;;;30.37;37.20;99947.16;4992609;28;1906;-58
2023/09/27 12:29:04;;;;;;;;;;;;;;;30.41;37.12;99941.94;4992932;28;836;-59
2023/09/27 12:31:50;;;;;;;;;;;;;;;30.87;37.30;99936.38;4992804;28;837;-59
2023/09/27 12:34:16;;;;;;;;;;;;;;;31.24;35.78;99951.88;4992604;28;848;-58
2023/09/27 12:37:01;;;;;;;;;;;;;;;31.31;35.76;99940.59;4992662;28;830;-58
2023/09/27 12:39:27;;;;;;;;;;;;;;;30.04;37.70;99936.91;4992448;28;881;-58
2023/09/27 12:41:57;;;;;;;;;;;;;;;28.84;39.93;99949.81;4992581;28;821;-58
2023/09/27 12:44:36;;;;;;;;;;;;;;;27.95;39.71;99963.09;4992500;28;852;-58
2023/09/27 12:47:03;;;;;;;;;;;;;;;27.08;40.25;99957.19;4992520;28;1887;-58
2023/09/27 12:49:30;;;;;;;;;;;;;;;27.54;40.23;99955.91;4975036;28;1248;-57
2023/09/27 12:57:28;;;;;;;;;;;;;;;29.34;37.70;99943.03;4992374;28;1129;-58
2023/09/27 13:02:39;;;;;;;;;;;;;;;28.94;37.92;99948.22;4996392;28;859;-58
2023/09/27 13:05:06;;;;;;;;;;;;;;;28.53;38.36;99946.13;4996413;28;916;-58
2023/09/27 13:07:34;;;;;;;;;;;;;;;28.60;38.39;99931.34;4996115;28;1951;-59
2023/09/27 13:10:01;;;;;;;;;;;;;;;28.59;37.26;99952.56;4996391;28;864;-58
2023/09/27 13:12:27;;;;;;;;;;;;;;;28.68;37.97;99932.34;4996258;28;1026;-58
2023/09/27 13:14:56;;;;;;;;;;;;;;;28.88;38.88;99942.56;4996075;28;1289;-58
2023/09/27 13:20:10;;;;;;;;;;;;;;;29.52;37.24;99933.03;4996441;28;804;-59
2023/09/27 13:22:37;;;;;;;;;;;;;;;29.49;36.72;99943.41;4978541;28;1378;-58
2023/09/27 13:25:05;;;;;;;;;;;;;;;29.38;37.29;99943.50;4996065;28;817;-58
2023/09/27 13:27:31;;;;;;;;;;;;;;;29.33;37.47;99944.31;4995761;28;1970;-59
2023/09/27 13:30:17;;;;;;;;;;;;;;;29.08;38.38;99932.84;4995985;28;871;-59
2023/09/27 13:32:44;;;;;;;;;;;;;;;28.91;38.11;99937.88;4995896;28;837;-59
2023/09/27 13:35:11;;;;;;;;;;;;;;;28.48;38.55;99930.63;4995839;28;858;-58
2023/09/27 13:37:38;;;;;;;;;;;;;;;28.13;38.48;99930.53;4995704;28;860;-58
2023/09/27 13:40:05;;;;;;;;;;;;;;;28.47;38.92;99936.81;4996008;28;856;-58
2023/09/27 13:42:35;;;;;;;;;;;;;;;28.64;38.88;99936.78;4995719;28;1141;-58
2023/09/27 13:47:46;;;;;;;;;;;;;;;28.26;39.49;99934.31;4995640;28;1953;-58